CheckWX is a tool to help pilots better visualize weather data.  It is not intended as a substitute for an official pre-flight weather briefing.

06:46:25 UTC

LPPS TAF
Porto Santo Airport
Vila Baleira, Portugal
TAF LPPS 160500Z 1606/1712 VRB05KT 9999 SCT015 BECMG 1609/1612 15010KT SCT012 BKN030 BECMG 1700/1703 18015KT PROB30 TEMPO 1700/1712 3000 DZRA BR SCT005 BKN010

Jun-16@
06:00 UTC

Jun-16 @ 06:00 UTC

Jun-16@
09:00 UTC

Jun-16 @ 09:00 UTC

TAF LPPS 160500Z 1606/1712 VRB05KT 9999 SCT015
Wind
  • Variable at 5 KTS
Cloud Levels
  • Scattered at 1,500' AGL

Jun-16@
09:00 UTC

Jun-16 @ 09:00 UTC

Jun-17@
00:00 UTC

Jun-17 @ 00:00 UTC

BECMG 1609/1612 15010KT SCT012 BKN030

Becoming

Becoming Conditions expected by Sun, Jun 16, 2019 @ 12:00 UTC

Wind
  • 150° at 10 KTS
Cloud Levels
  • Scattered at 1,200' AGL
  • Broken at 3,000' AGL

Jun-17@
00:00 UTC

Jun-17 @ 00:00 UTC

Jun-17@
12:00 UTC

Jun-17 @ 12:00 UTC

PROB30 TEMPO 1700/1712 3000 DZRA BR SCT005 BKN010

Temporary - 30% Likelihood

Temporary - 30% Likelihood during this time.

Conditions
Drizzle, Rain, Mist
Cloud Levels
  • Scattered at 500' AGL
  • Broken at 1,000' AGL

Jun-17@
00:00 UTC

Jun-17 @ 00:00 UTC

Jun-17@
12:00 UTC

Jun-17 @ 12:00 UTC

BECMG 1700/1703 18015KT

Becoming

Becoming Conditions expected by Mon, Jun 17, 2019 @ 03:00 UTC

Wind
  • 180° at 15 KTS
Cloud Levels
  • Scattered at 1,200' AGL
  • Broken at 3,000' AGL